sensor_id;sensor_type;location;lat;lon;timestamp;pressure;altitude;pressure_sealevel;temperature;humidity
6899;BME280;3488;42.616;23.350;2023-02-21T00:01:34;62368.94;;;3.57;90.70
6899;BME280;3488;42.616;23.350;2023-02-21T00:04:19;62365.47;;;3.61;90.73
6899;BME280;3488;42.616;23.350;2023-02-21T00:07:03;62372.06;;;3.63;90.99
6899;BME280;3488;42.616;23.350;2023-02-21T00:09:48;62374.56;;;3.63;90.17
6899;BME280;3488;42.616;23.350;2023-02-21T00:12:34;62370.97;;;3.59;90.52
6899;BME280;3488;42.616;23.350;2023-02-21T00:15:18;62364.34;;;3.55;90.69
6899;BME280;3488;42.616;23.350;2023-02-21T00:18:03;62367.38;;;3.55;90.75
6899;BME280;3488;42.616;23.350;2023-02-21T00:20:47;62370.59;;;3.64;90.58
6899;BME280;3488;42.616;23.350;2023-02-21T00:23:33;62366.00;;;3.62;90.77
6899;BME280;3488;42.616;23.350;2023-02-21T00:26:17;62374.63;;;3.65;90.68
6899;BME280;3488;42.616;23.350;2023-02-21T00:29:03;62382.81;;;3.71;90.42
6899;BME280;3488;42.616;23.350;2023-02-21T00:31:48;62379.84;;;3.73;89.16
6899;BME280;3488;42.616;23.350;2023-02-21T00:34:32;62359.72;;;3.50;90.76
6899;BME280;3488;42.616;23.350;2023-02-21T00:37:16;62369.94;;;3.58;90.69
6899;BME280;3488;42.616;23.350;2023-02-21T00:40:01;62373.56;;;3.62;90.85
6899;BME280;3488;42.616;23.350;2023-02-21T00:42:45;62364.34;;;3.55;91.83
6899;BME280;3488;42.616;23.350;2023-02-21T00:45:31;62388.97;;;3.77;90.81
6899;BME280;3488;42.616;23.350;2023-02-21T00:48:19;62376.75;;;3.70;91.10
6899;BME280;3488;42.616;23.350;2023-02-21T00:51:03;62381.78;;;3.70;91.51
6899;BME280;3488;42.616;23.350;2023-02-21T00:53:48;62386.47;;;3.77;91.46
6899;BME280;3488;42.616;23.350;2023-02-21T00:56:32;62386.34;;;3.72;92.06
6899;BME280;3488;42.616;23.350;2023-02-21T00:59:17;62385.38;;;3.73;92.13
6899;BME280;3488;42.616;23.350;2023-02-21T01:02:03;62388.59;;;3.81;91.94
6899;BME280;3488;42.616;23.350;2023-02-21T01:04:48;62393.19;;;3.86;90.99
6899;BME280;3488;42.616;23.350;2023-02-21T01:07:32;62408.06;;;3.98;90.68
6899;BME280;3488;42.616;23.350;2023-02-21T01:10:16;62409.56;;;3.97;90.43
6899;BME280;3488;42.616;23.350;2023-02-21T01:13:02;62404.53;;;3.97;90.46
6899;BME280;3488;42.616;23.350;2023-02-21T01:15:47;62409.59;;;3.99;89.67
6899;BME280;3488;42.616;23.350;2023-02-21T01:18:33;62401.94;;;3.94;89.77
6899;BME280;3488;42.616;23.350;2023-02-21T01:21:18;62410.69;;;4.03;89.49
6899;BME280;3488;42.616;23.350;2023-02-21T01:24:03;62421.91;;;4.09;89.16
6899;BME280;3488;42.616;23.350;2023-02-21T01:26:48;62409.66;;;4.02;89.16
6899;BME280;3488;42.616;23.350;2023-02-21T01:29:32;62418.88;;;4.08;88.37
6899;BME280;3488;42.616;23.350;2023-02-21T01:32:17;62430.66;;;4.17;87.76
6899;BME280;3488;42.616;23.350;2023-02-21T01:35:03;62430.69;;;4.20;87.74
6899;BME280;3488;42.616;23.350;2023-02-21T01:37:48;62447.09;;;4.33;86.59
6899;BME280;3488;42.616;23.350;2023-02-21T01:40:33;62433.28;;;4.22;86.50
6899;BME280;3488;42.616;23.350;2023-02-21T01:43:19;62434.25;;;4.21;86.85
6899;BME280;3488;42.616;23.350;2023-02-21T01:46:05;62435.34;;;4.24;86.92
6899;BME280;3488;42.616;23.350;2023-02-21T01:48:51;62438.81;;;4.23;86.68
6899;BME280;3488;42.616;23.350;2023-02-21T01:51:40;62439.91;;;4.26;86.19
6899;BME280;3488;42.616;23.350;2023-02-21T01:54:31;62434.75;;;4.21;86.74
6899;BME280;3488;42.616;23.350;2023-02-21T01:57:16;62421.50;;;4.13;86.92
6899;BME280;3488;42.616;23.350;2023-02-21T02:00:06;62427.06;;;4.14;86.85
6899;BME280;3488;42.616;23.350;2023-02-21T02:02:53;62420.94;;;4.10;87.47
6899;BME280;3488;42.616;23.350;2023-02-21T02:05:40;62413.78;;;4.06;87.38
6899;BME280;3488;42.616;23.350;2023-02-21T02:08:30;62417.25;;;4.04;87.05
6899;BME280;3488;42.616;23.350;2023-02-21T02:11:28;62426.53;;;4.13;86.63
6899;BME280;3488;42.616;23.350;2023-02-21T02:14:32;62419.38;;;4.09;87.26
6899;BME280;3488;42.616;23.350;2023-02-21T02:17:10;62422.88;;;4.07;86.94
6899;BME280;3488;42.616;23.350;2023-02-21T02:23:18;62426.00;;;4.13;86.74
6899;BME280;3488;42.616;23.350;2023-02-21T02:26:04;62419.88;;;4.09;86.69
6899;BME280;3488;42.616;23.350;2023-02-21T02:28:53;62417.78;;;4.05;86.82
6899;BME280;3488;42.616;23.350;2023-02-21T02:31:45;62408.59;;;3.98;87.92
6899;BME280;3488;42.616;23.350;2023-02-21T02:34:35;62425.03;;;4.14;86.85
6899;BME280;3488;42.616;23.350;2023-02-21T02:37:11;62413.16;;;4.00;87.13
6899;BME280;3488;42.616;23.350;2023-02-21T02:39:45;62416.25;;;4.03;87.10
6899;BME280;3488;42.616;23.350;2023-02-21T02:42:20;62409.66;;;4.02;87.52
6899;BME280;3488;42.616;23.350;2023-02-21T02:44:52;62407.03;;;3.97;87.93
6899;BME280;3488;42.616;23.350;2023-02-21T02:47:27;62401.94;;;3.94;88.33
6899;BME280;3488;42.616;23.350;2023-02-21T02:49:58;62407.03;;;3.97;88.17
6899;BME280;3488;42.616;23.350;2023-02-21T02:52:26;62403.94;;;3.94;88.06
6899;BME280;3488;42.616;23.350;2023-02-21T02:55:00;62409.59;;;3.99;88.03
6899;BME280;3488;42.616;23.350;2023-02-21T02:57:28;62415.25;;;4.05;87.35
6899;BME280;3488;42.616;23.350;2023-02-21T03:00:03;62423.44;;;4.10;86.92
6899;BME280;3488;42.616;23.350;2023-02-21T03:02:39;62421.38;;;4.08;86.82
6899;BME280;3488;42.616;23.350;2023-02-21T03:05:30;62412.69;;;4.02;86.71
6899;BME280;3488;42.616;23.350;2023-02-21T03:08:05;62413.22;;;4.03;86.66
6899;BME280;3488;42.616;23.350;2023-02-21T03:10:41;62412.19;;;4.02;86.52
6899;BME280;3488;42.616;23.350;2023-02-21T03:13:13;62413.16;;;4.00;86.47
6899;BME280;3488;42.616;23.350;2023-02-21T03:15:46;62391.56;;;3.79;87.26
6899;BME280;3488;42.616;23.350;2023-02-21T03:18:18;62385.44;;;3.76;87.72
6899;BME280;3488;42.616;23.350;2023-02-21T03:20:53;62383.84;;;3.72;88.51
6899;BME280;3488;42.616;23.350;2023-02-21T03:23:24;62380.31;;;3.71;88.38
6899;BME280;3488;42.616;23.350;2023-02-21T03:25:53;62378.81;;;3.72;88.67
6899;BME280;3488;42.616;23.350;2023-02-21T03:28:23;62378.75;;;3.69;88.54
6899;BME280;3488;42.616;23.350;2023-02-21T03:30:52;62395.09;;;3.80;88.45
6899;BME280;3488;42.616;23.350;2023-02-21T03:33:22;62388.47;;;3.76;88.75
6899;BME280;3488;42.616;23.350;2023-02-21T03:35:51;62391.56;;;3.79;88.14
6899;BME280;3488;42.616;23.350;2023-02-21T03:38:19;62406.41;;;3.91;87.82
6899;BME280;3488;42.616;23.350;2023-02-21T03:40:46;62396.75;;;3.87;87.75
6899;BME280;3488;42.616;23.350;2023-02-21T03:43:13;62395.19;;;3.85;88.12
6899;BME280;3488;42.616;23.350;2023-02-21T03:45:40;62400.34;;;3.90;87.49
6899;BME280;3488;42.616;23.350;2023-02-21T03:48:07;62399.25;;;3.87;87.69
6899;BME280;3488;42.616;23.350;2023-02-21T03:50:34;62400.28;;;3.88;87.70
6899;BME280;3488;42.616;23.350;2023-02-21T03:53:02;62404.47;;;3.94;87.13
6899;BME280;3488;42.616;23.350;2023-02-21T03:55:29;62418.88;;;4.08;86.73
6899;BME280;3488;42.616;23.350;2023-02-21T03:57:57;62415.31;;;4.07;86.45
6899;BME280;3488;42.616;23.350;2023-02-21T04:00:24;62410.06;;;3.97;87.07
6899;BME280;3488;42.616;23.350;2023-02-21T04:02:51;62415.72;;;4.03;87.04
6899;BME280;3488;42.616;23.350;2023-02-21T04:05:18;62404.91;;;3.92;87.61
6899;BME280;3488;42.616;23.350;2023-02-21T04:07:45;62413.66;;;4.01;86.64
6899;BME280;3488;42.616;23.350;2023-02-21T04:10:14;62414.69;;;4.02;86.16
6899;BME280;3488;42.616;23.350;2023-02-21T04:12:41;62418.81;;;4.06;86.07
6899;BME280;3488;42.616;23.350;2023-02-21T04:15:09;62414.69;;;4.02;86.23
6899;BME280;3488;42.616;23.350;2023-02-21T04:17:37;62406.56;;;3.99;86.19
6899;BME280;3488;42.616;23.350;2023-02-21T04:20:05;62413.09;;;3.98;86.32
6899;BME280;3488;42.616;23.350;2023-02-21T04:22:32;62389.03;;;3.79;85.89
6899;BME280;3488;42.616;23.350;2023-02-21T04:24:59;62412.19;;;4.02;85.94
6899;BME280;3488;42.616;23.350;2023-02-21T04:27:27;62411.09;;;3.98;86.05
6899;BME280;3488;42.616;23.350;2023-02-21T04:29:54;62410.03;;;3.95;86.24
6899;BME280;3488;42.616;23.350;2023-02-21T04:32:21;62393.25;;;3.88;86.78
6899;BME280;3488;42.616;23.350;2023-02-21T04:34:48;62392.63;;;3.83;86.98
6899;BME280;3488;42.616;23.350;2023-02-21T04:37:15;62400.34;;;3.90;86.65
6899;BME280;3488;42.616;23.350;2023-02-21T04:39:42;62397.78;;;3.88;87.36
6899;BME280;3488;42.616;23.350;2023-02-21T04:42:09;62393.50;;;3.76;87.98
6899;BME280;3488;42.616;23.350;2023-02-21T04:44:37;62373.03;;;3.61;89.39
6899;BME280;3488;42.616;23.350;2023-02-21T04:47:04;62371.03;;;3.62;90.21
6899;BME280;3488;42.616;23.350;2023-02-21T04:49:31;62374.63;;;3.65;89.67
6899;BME280;3488;42.616;23.350;2023-02-21T04:51:59;62374.13;;;3.65;90.03
6899;BME280;3488;42.616;23.350;2023-02-21T04:54:25;62378.13;;;3.64;90.36
6899;BME280;3488;42.616;23.350;2023-02-21T04:56:52;62368.59;;;3.64;90.41
6899;BME280;3488;42.616;23.350;2023-02-21T04:59:19;62369.53;;;3.63;90.14
6899;BME280;3488;42.616;23.350;2023-02-21T05:01:48;62368.00;;;3.61;90.27
6899;BME280;3488;42.616;23.350;2023-02-21T05:04:14;62372.56;;;3.63;90.40
6899;BME280;3488;42.616;23.350;2023-02-21T05:06:41;62372.53;;;3.61;90.43
6899;BME280;3488;42.616;23.350;2023-02-21T05:09:08;62365.91;;;3.57;90.36
6899;BME280;3488;42.616;23.350;2023-02-21T05:11:35;62360.19;;;3.48;90.67
6899;BME280;3488;42.616;23.350;2023-02-21T05:14:02;62366.88;;;3.55;90.45
6899;BME280;3488;42.616;23.350;2023-02-21T05:16:29;62373.00;;;3.59;90.15
6899;BME280;3488;42.616;23.350;2023-02-21T05:18:58;62364.97;;;3.61;89.85
6899;BME280;3488;42.616;23.350;2023-02-21T05:21:27;62369.94;;;3.58;89.65
6899;BME280;3488;42.616;23.350;2023-02-21T05:23:54;62374.69;;;3.68;89.30
6899;BME280;3488;42.616;23.350;2023-02-21T05:26:25;62370.13;;;3.66;89.62
6899;BME280;3488;42.616;23.350;2023-02-21T05:28:55;62370.59;;;3.64;89.42
6899;BME280;3488;42.616;23.350;2023-02-21T05:31:22;62375.63;;;3.64;89.24
6899;BME280;3488;42.616;23.350;2023-02-21T05:33:49;62373.09;;;3.64;89.34
6899;BME280;3488;42.616;23.350;2023-02-21T05:36:17;62390.13;;;3.83;88.12
6899;BME280;3488;42.616;23.350;2023-02-21T05:38:46;62392.69;;;3.85;87.70
6899;BME280;3488;42.616;23.350;2023-02-21T05:41:14;62402.28;;;3.87;86.94
6899;BME280;3488;42.616;23.350;2023-02-21T05:43:43;62395.66;;;3.83;87.61
6899;BME280;3488;42.616;23.350;2023-02-21T05:46:17;62398.75;;;3.86;87.31
6899;BME280;3488;42.616;23.350;2023-02-21T05:48:44;62414.19;;;4.01;86.53
6899;BME280;3488;42.616;23.350;2023-02-21T05:51:12;62423.44;;;4.10;85.93
6899;BME280;3488;42.616;23.350;2023-02-21T05:53:40;62424.00;;;4.13;84.86
6899;BME280;3488;42.616;23.350;2023-02-21T05:56:08;62415.31;;;4.07;85.35
6899;BME280;3488;42.616;23.350;2023-02-21T05:58:35;62427.09;;;4.16;85.36
6899;BME280;3488;42.616;23.350;2023-02-21T06:01:02;62430.66;;;4.17;85.74
6899;BME280;3488;42.616;23.350;2023-02-21T06:03:29;62440.88;;;4.25;85.79
6899;BME280;3488;42.616;23.350;2023-02-21T06:05:56;62449.16;;;4.35;85.06
6899;BME280;3488;42.616;23.350;2023-02-21T06:08:23;62457.41;;;4.43;85.16
6899;BME280;3488;42.616;23.350;2023-02-21T06:10:51;62469.34;;;4.60;83.79
6899;BME280;3488;42.616;23.350;2023-02-21T06:13:18;62484.25;;;4.74;83.30
6899;BME280;3488;42.616;23.350;2023-02-21T06:15:45;62508.47;;;4.98;81.31
6899;BME280;3488;42.616;23.350;2023-02-21T06:18:13;62518.19;;;5.05;80.39
6899;BME280;3488;42.616;23.350;2023-02-21T06:20:40;62536.25;;;5.25;80.02
6899;BME280;3488;42.616;23.350;2023-02-21T06:23:07;62557.38;;;5.46;77.76
6899;BME280;3488;42.616;23.350;2023-02-21T06:25:34;62568.19;;;5.56;77.48
6899;BME280;3488;42.616;23.350;2023-02-21T06:28:02;62581.56;;;5.69;75.03
6899;BME280;3488;42.616;23.350;2023-02-21T06:30:29;62583.09;;;5.68;74.94
6899;BME280;3488;42.616;23.350;2023-02-21T06:32:57;62578.41;;;5.61;74.47
6899;BME280;3488;42.616;23.350;2023-02-21T06:35:24;62565.09;;;5.53;75.13
6899;BME280;3488;42.616;23.350;2023-02-21T06:37:50;62565.63;;;5.54;75.01
6899;BME280;3488;42.616;23.350;2023-02-21T06:40:18;62572.31;;;5.60;75.68
6899;BME280;3488;42.616;23.350;2023-02-21T06:42:45;62582.09;;;5.70;74.33
6899;BME280;3488;42.616;23.350;2023-02-21T06:45:13;62569.13;;;5.52;75.14
6899;BME280;3488;42.616;23.350;2023-02-21T06:47:40;62574.38;;;5.62;74.99
6899;BME280;3488;42.616;23.350;2023-02-21T06:50:08;62584.09;;;5.69;74.74
6899;BME280;3488;42.616;23.350;2023-02-21T06:52:36;62583.66;;;5.71;74.68
6899;BME280;3488;42.616;23.350;2023-02-21T06:55:04;62590.31;;;5.75;73.92
6899;BME280;3488;42.616;23.350;2023-02-21T06:57:31;62603.19;;;5.88;73.70
6899;BME280;3488;42.616;23.350;2023-02-21T06:59:58;62610.97;;;5.98;73.19
6899;BME280;3488;42.616;23.350;2023-02-21T07:02:26;62627.34;;;6.09;72.14
6899;BME280;3488;42.616;23.350;2023-02-21T07:04:53;62647.47;;;6.29;71.60
6899;BME280;3488;42.616;23.350;2023-02-21T07:07:20;62652.63;;;6.34;70.66
6899;BME280;3488;42.616;23.350;2023-02-21T07:09:47;62669.66;;;6.50;69.36
6899;BME280;3488;42.616;23.350;2023-02-21T07:12:14;62694.44;;;6.77;68.83
6899;BME280;3488;42.616;23.350;2023-02-21T07:14:41;62708.94;;;6.93;68.15
6899;BME280;3488;42.616;23.350;2023-02-21T07:17:08;62724.34;;;7.06;67.18
6899;BME280;3488;42.616;23.350;2023-02-21T07:19:37;62742.41;;;7.24;66.84
6899;BME280;3488;42.616;23.350;2023-02-21T07:22:05;62759.94;;;7.41;65.47
6899;BME280;3488;42.616;23.350;2023-02-21T07:24:31;62773.31;;;7.51;64.63
6899;BME280;3488;42.616;23.350;2023-02-21T07:26:58;62793.00;;;7.73;64.39
6899;BME280;3488;42.616;23.350;2023-02-21T07:29:26;62796.59;;;7.76;63.27
6899;BME280;3488;42.616;23.350;2023-02-21T07:31:53;62808.00;;;7.90;62.72
6899;BME280;3488;42.616;23.350;2023-02-21T07:34:20;62811.56;;;7.91;61.38
6899;BME280;3488;42.616;23.350;2023-02-21T07:36:49;62806.38;;;7.83;61.57
6899;BME280;3488;42.616;23.350;2023-02-21T07:39:16;62818.66;;;7.90;61.32
6899;BME280;3488;42.616;23.350;2023-02-21T07:41:43;62820.81;;;7.97;61.09
6899;BME280;3488;42.616;23.350;2023-02-21T07:44:10;62819.34;;;8.01;61.44
6899;BME280;3488;42.616;23.350;2023-02-21T07:46:37;62830.09;;;8.06;60.71
6899;BME280;3488;42.616;23.350;2023-02-21T07:49:07;62829.13;;;8.08;60.53
6899;BME280;3488;42.616;23.350;2023-02-21T07:51:34;62835.25;;;8.11;60.69
6899;BME280;3488;42.616;23.350;2023-02-21T07:54:03;62822.47;;;8.04;61.25
6899;BME280;3488;42.616;23.350;2023-02-21T07:56:29;62813.56;;;7.90;60.35
6899;BME280;3488;42.616;23.350;2023-02-21T07:58:57;62817.28;;;7.99;61.13
6899;BME280;3488;42.616;23.350;2023-02-21T08:01:24;62832.69;;;8.09;60.71
6899;BME280;3488;42.616;23.350;2023-02-21T08:03:52;62827.63;;;8.09;60.66
6899;BME280;3488;42.616;23.350;2023-02-21T08:06:19;62831.19;;;8.10;60.65
6899;BME280;3488;42.616;23.350;2023-02-21T08:08:46;62843.06;;;8.21;60.30
6899;BME280;3488;42.616;23.350;2023-02-21T08:11:14;62846.13;;;8.22;60.19
6899;BME280;3488;42.616;23.350;2023-02-21T08:13:41;62842.03;;;8.20;60.39
6899;BME280;3488;42.616;23.350;2023-02-21T08:16:08;62849.28;;;8.28;61.17
6899;BME280;3488;42.616;23.350;2023-02-21T08:18:36;62856.94;;;8.30;62.46
6899;BME280;3488;42.616;23.350;2023-02-21T08:21:03;62832.72;;;8.11;59.95
6899;BME280;3488;42.616;23.350;2023-02-21T08:23:34;62821.94;;;8.03;60.66
6899;BME280;3488;42.616;23.350;2023-02-21T08:26:02;62835.25;;;8.11;60.76
6899;BME280;3488;42.616;23.350;2023-02-21T08:28:30;62846.56;;;8.20;60.31
6899;BME280;3488;42.616;23.350;2023-02-21T08:30:57;62857.50;;;8.33;60.06
6899;BME280;3488;42.616;23.350;2023-02-21T08:33:24;62872.06;;;8.52;59.92
6899;BME280;3488;42.616;23.350;2023-02-21T08:35:51;62887.50;;;8.65;59.75
6899;BME280;3488;42.616;23.350;2023-02-21T08:38:18;62894.22;;;8.71;59.66
6899;BME280;3488;42.616;23.350;2023-02-21T08:40:46;62899.84;;;8.74;58.78
6899;BME280;3488;42.616;23.350;2023-02-21T08:43:13;62905.63;;;8.85;58.47
6899;BME280;3488;42.616;23.350;2023-02-21T08:45:42;62910.75;;;8.87;57.83
6899;BME280;3488;42.616;23.350;2023-02-21T08:48:08;62917.34;;;8.86;57.02
6899;BME280;3488;42.616;23.350;2023-02-21T08:50:36;62918.97;;;8.93;57.56
6899;BME280;3488;42.616;23.350;2023-02-21T08:53:03;62936.63;;;9.15;57.59
6899;BME280;3488;42.616;23.350;2023-02-21T08:55:31;62954.69;;;9.30;57.00
6899;BME280;3488;42.616;23.350;2023-02-21T08:57:58;62985.66;;;9.58;56.14
6899;BME280;3488;42.616;23.350;2023-02-21T09:00:25;62981.56;;;9.56;54.60
6899;BME280;3488;42.616;23.350;2023-02-21T09:02:55;62979.44;;;9.52;54.68
6899;BME280;3488;42.616;23.350;2023-02-21T09:05:25;62984.66;;;9.59;54.58
6899;BME280;3488;42.616;23.350;2023-02-21T09:07:54;63006.38;;;9.80;54.44
6899;BME280;3488;42.616;23.350;2023-02-21T09:10:24;63001.16;;;9.73;54.67
6899;BME280;3488;42.616;23.350;2023-02-21T09:12:51;62992.38;;;9.64;54.48
6899;BME280;3488;42.616;23.350;2023-02-21T09:15:18;63000.09;;;9.69;54.31
6899;BME280;3488;42.616;23.350;2023-02-21T09:17:45;62991.41;;;9.68;54.27
6899;BME280;3488;42.616;23.350;2023-02-21T09:20:17;62983.16;;;9.60;54.16
6899;BME280;3488;42.616;23.350;2023-02-21T09:22:45;63004.31;;;9.78;54.14
6899;BME280;3488;42.616;23.350;2023-02-21T09:25:14;63024.91;;;9.93;54.17
6899;BME280;3488;42.616;23.350;2023-02-21T09:27:41;63029.63;;;10.00;53.17
6899;BME280;3488;42.616;23.350;2023-02-21T09:30:11;63050.31;;;10.20;53.47
6899;BME280;3488;42.616;23.350;2023-02-21T09:32:39;63056.63;;;10.31;52.95
6899;BME280;3488;42.616;23.350;2023-02-21T09:35:07;63068.47;;;10.40;52.80
6899;BME280;3488;42.616;23.350;2023-02-21T09:37:39;63083.00;;;10.57;52.17
6899;BME280;3488;42.616;23.350;2023-02-21T09:40:12;63101.06;;;10.72;51.58
6899;BME280;3488;42.616;23.350;2023-02-21T09:42:41;63110.38;;;10.81;51.46
6899;BME280;3488;42.616;23.350;2023-02-21T09:45:13;63121.25;;;10.92;51.25
6899;BME280;3488;42.616;23.350;2023-02-21T09:47:42;63126.44;;;10.97;50.36
6899;BME280;3488;42.616;23.350;2023-02-21T09:50:13;63137.22;;;11.02;50.15
6899;BME280;3488;42.616;23.350;2023-02-21T09:52:42;63147.13;;;11.17;50.26
6899;BME280;3488;42.616;23.350;2023-02-21T09:55:15;63162.16;;;11.31;50.24
6899;BME280;3488;42.616;23.350;2023-02-21T09:57:46;63193.16;;;11.56;49.85
6899;BME280;3488;42.616;23.350;2023-02-21T10:00:18;63205.13;;;11.71;48.68
6899;BME280;3488;42.616;23.350;2023-02-21T10:02:56;63221.72;;;11.87;48.59
6899;BME280;3488;42.616;23.350;2023-02-21T10:05:34;63260.56;;;12.24;47.75
6899;BME280;3488;42.616;23.350;2023-02-21T10:08:10;63277.22;;;12.45;44.52
6899;BME280;3488;42.616;23.350;2023-02-21T10:10:43;63288.59;;;12.54;44.23
6899;BME280;3488;42.616;23.350;2023-02-21T10:13:22;63309.84;;;12.74;44.28
6899;BME280;3488;42.616;23.350;2023-02-21T10:15:58;63324.31;;;12.84;44.73
6899;BME280;3488;42.616;23.350;2023-02-21T10:18:32;63334.66;;;12.94;43.91
6899;BME280;3488;42.616;23.350;2023-02-21T10:21:03;63332.13;;;12.96;43.65
6899;BME280;3488;42.616;23.350;2023-02-21T10:23:41;63368.94;;;13.29;43.31
6899;BME280;3488;42.616;23.350;2023-02-21T10:26:13;63385.00;;;13.42;41.71
6899;BME280;3488;42.616;23.350;2023-02-21T10:28:42;63391.28;;;13.51;40.81
6899;BME280;3488;42.616;23.350;2023-02-21T10:31:12;63407.88;;;13.67;41.69
6899;BME280;3488;42.616;23.350;2023-02-21T10:33:40;63430.66;;;13.86;42.09
6899;BME280;3488;42.616;23.350;2023-02-21T10:36:12;63444.78;;;14.08;39.09
6899;BME280;3488;42.616;23.350;2023-02-21T10:38:49;63463.94;;;14.21;40.07
6899;BME280;3488;42.616;23.350;2023-02-21T10:41:20;63483.69;;;14.43;35.02
6899;BME280;3488;42.616;23.350;2023-02-21T10:43:49;63510.13;;;14.63;34.80
6899;BME280;3488;42.616;23.350;2023-02-21T10:46:23;63530.97;;;14.88;34.39
6899;BME280;3488;42.616;23.350;2023-02-21T10:48:53;63559.00;;;15.13;33.79
6899;BME280;3488;42.616;23.350;2023-02-21T10:51:29;63565.19;;;15.17;35.62
6899;BME280;3488;42.616;23.350;2023-02-21T10:54:17;63555.84;;;15.10;35.59
6899;BME280;3488;42.616;23.350;2023-02-21T10:56:45;63578.09;;;15.24;35.14
6899;BME280;3488;42.616;23.350;2023-02-21T10:59:20;63593.28;;;15.46;31.70
6899;BME280;3488;42.616;23.350;2023-02-21T11:01:49;63602.66;;;15.55;34.42
6899;BME280;3488;42.616;23.350;2023-02-21T11:04:26;63622.38;;;15.72;29.77
6899;BME280;3488;42.616;23.350;2023-02-21T11:06:55;63631.72;;;15.81;29.45
6899;BME280;3488;42.616;23.350;2023-02-21T11:09:30;63647.88;;;15.99;28.92
6899;BME280;3488;42.616;23.350;2023-02-21T11:12:03;63657.28;;;16.10;29.53
6899;BME280;3488;42.616;23.350;2023-02-21T11:14:31;63651.53;;;16.05;29.87
6899;BME280;3488;42.616;23.350;2023-02-21T11:17:14;63644.19;;;15.90;30.02
6899;BME280;3488;42.616;23.350;2023-02-21T11:19:44;63655.13;;;16.03;29.08
6899;BME280;3488;42.616;23.350;2023-02-21T11:22:12;63670.22;;;16.20;28.85
6899;BME280;3488;42.616;23.350;2023-02-21T11:24:48;63676.00;;;16.31;29.93
6899;BME280;3488;42.616;23.350;2023-02-21T11:27:17;63681.13;;;16.29;29.29
6899;BME280;3488;42.616;23.350;2023-02-21T11:29:47;63687.94;;;16.40;28.95
6899;BME280;3488;42.616;23.350;2023-02-21T11:32:23;63720.66;;;16.64;28.52
6899;BME280;3488;42.616;23.350;2023-02-21T11:35:00;63696.72;;;16.44;29.29
6899;BME280;3488;42.616;23.350;2023-02-21T11:37:27;63683.78;;;16.34;29.85
6899;BME280;3488;42.616;23.350;2023-02-21T11:39:58;63700.44;;;16.50;29.59
6899;BME280;3488;42.616;23.350;2023-02-21T11:42:28;63718.03;;;16.59;29.55
6899;BME280;3488;42.616;23.350;2023-02-21T11:45:11;63726.94;;;16.73;29.85
6899;BME280;3488;42.616;23.350;2023-02-21T11:47:44;63743.59;;;16.89;29.58
6899;BME280;3488;42.616;23.350;2023-02-21T11:50:21;63745.16;;;16.93;29.33
6899;BME280;3488;42.616;23.350;2023-02-21T11:52:55;63753.50;;;17.03;29.47
6899;BME280;3488;42.616;23.350;2023-02-21T11:55:28;63751.44;;;17.01;29.63
6899;BME280;3488;42.616;23.350;2023-02-21T11:58:05;63746.22;;;16.94;29.42
6899;BME280;3488;42.616;23.350;2023-02-21T12:00:42;63748.25;;;16.93;28.85
6899;BME280;3488;42.616;23.350;2023-02-21T12:03:57;63760.81;;;17.10;28.37
6899;BME280;3488;42.616;23.350;2023-02-21T12:06:31;63763.91;;;17.11;28.60
6899;BME280;3488;42.616;23.350;2023-02-21T12:09:06;63775.84;;;17.20;28.76
6899;BME280;3488;42.616;23.350;2023-02-21T12:11:52;63769.09;;;17.16;28.41
6899;BME280;3488;42.616;23.350;2023-02-21T12:14:32;63769.63;;;17.16;28.69
6899;BME280;3488;42.616;23.350;2023-02-21T12:17:17;63735.88;;;16.89;29.35
6899;BME280;3488;42.616;23.350;2023-02-21T12:22:59;63727.47;;;16.76;29.56
6899;BME280;3488;42.616;23.350;2023-02-21T12:25:35;63704.03;;;16.51;30.12
6899;BME280;3488;42.616;23.350;2023-02-21T12:28:14;63701.00;;;16.55;29.30
6899;BME280;3488;42.616;23.350;2023-02-21T12:31:03;63708.72;;;16.55;30.12
6899;BME280;3488;42.616;23.350;2023-02-21T12:33:42;63704.63;;;16.56;29.59
6899;BME280;3488;42.616;23.350;2023-02-21T12:36:29;63707.16;;;16.54;30.27
6899;BME280;3488;42.616;23.350;2023-02-21T12:39:09;63705.09;;;16.54;30.03
6899;BME280;3488;42.616;23.350;2023-02-21T12:42:01;63694.13;;;16.41;29.71
6899;BME280;3488;42.616;23.350;2023-02-21T12:44:38;63704.59;;;16.54;29.90
6899;BME280;3488;42.616;23.350;2023-02-21T12:47:11;63720.69;;;16.67;28.76
6899;BME280;3488;42.616;23.350;2023-02-21T12:49:45;63728.00;;;16.76;28.98
6899;BME280;3488;42.616;23.350;2023-02-21T12:52:19;63736.28;;;16.82;29.12
6899;BME280;3488;42.616;23.350;2023-02-21T12:54:51;63727.97;;;16.74;30.29
6899;BME280;3488;42.616;23.350;2023-02-21T12:57:24;63731.16;;;16.82;29.68
6899;BME280;3488;42.616;23.350;2023-02-21T13:00:01;63743.03;;;16.86;29.49
6899;BME280;3488;42.616;23.350;2023-02-21T13:02:37;63748.78;;;16.94;29.10
6899;BME280;3488;42.616;23.350;2023-02-21T13:05:10;63757.59;;;17.00;28.93
6899;BME280;3488;42.616;23.350;2023-02-21T13:07:43;63760.72;;;17.03;28.14
6899;BME280;3488;42.616;23.350;2023-02-21T13:10:17;63758.22;;;17.10;28.88
6899;BME280;3488;42.616;23.350;2023-02-21T13:12:48;63761.81;;;17.06;29.16
6899;BME280;3488;42.616;23.350;2023-02-21T13:15:20;63771.72;;;17.21;28.75
6899;BME280;3488;42.616;23.350;2023-02-21T13:17:53;63770.22;;;17.22;28.08
6899;BME280;3488;42.616;23.350;2023-02-21T13:20:24;63787.38;;;17.39;27.99
6899;BME280;3488;42.616;23.350;2023-02-21T13:26:10;63817.53;;;17.63;28.27
6899;BME280;3488;42.616;23.350;2023-02-21T13:28:42;63819.03;;;17.59;27.79
6899;BME280;3488;42.616;23.350;2023-02-21T13:31:20;63834.72;;;17.79;27.29
6899;BME280;3488;42.616;23.350;2023-02-21T13:33:49;63841.97;;;17.84;27.07
6899;BME280;3488;42.616;23.350;2023-02-21T13:36:23;63849.84;;;17.96;26.86
6899;BME280;3488;42.616;23.350;2023-02-21T13:39:03;63834.22;;;17.81;27.65
6899;BME280;3488;42.616;23.350;2023-02-21T13:41:33;63840.44;;;17.85;28.04
6899;BME280;3488;42.616;23.350;2023-02-21T13:44:05;63853.94;;;17.93;28.06
6899;BME280;3488;42.616;23.350;2023-02-21T13:47:09;63864.91;;;18.06;26.83
6899;BME280;3488;42.616;23.350;2023-02-21T13:49:50;63864.94;;;18.08;27.11
6899;BME280;3488;42.616;23.350;2023-02-21T13:52:51;63867.00;;;18.10;26.44
6899;BME280;3488;42.616;23.350;2023-02-21T13:55:28;63875.84;;;18.19;26.67
6899;BME280;3488;42.616;23.350;2023-02-21T13:58:27;63889.38;;;18.29;26.89
6899;BME280;3488;42.616;23.350;2023-02-21T14:01:17;63896.69;;;18.39;26.72